sensor_id;sensor_type;location;lat;lon;timestamp;P1;durP1;ratioP1;P2;durP2;ratioP2
48524;SDS011;34316;51.514;-0.178;2023-04-30T00:00:30;13.95;;;9.05;;
48524;SDS011;34316;51.514;-0.178;2023-04-30T00:02:32;16.25;;;8.65;;
48524;SDS011;34316;51.514;-0.178;2023-04-30T00:04:34;13.60;;;9.20;;
48524;SDS011;34316;51.514;-0.178;2023-04-30T00:06:35;16.38;;;8.77;;
48524;SDS011;34316;51.514;-0.178;2023-04-30T00:08:37;16.10;;;9.00;;
48524;SDS011;34316;51.514;-0.178;2023-04-30T00:10:38;13.13;;;8.02;;
48524;SDS011;34316;51.514;-0.178;2023-04-30T00:12:40;14.43;;;9.05;;
48524;SDS011;34316;51.514;-0.178;2023-04-30T00:14:42;17.10;;;8.73;;
48524;SDS011;34316;51.514;-0.178;2023-04-30T00:16:43;11.82;;;8.65;;
48524;SDS011;34316;51.514;-0.178;2023-04-30T00:18:45;12.10;;;8.40;;
48524;SDS011;34316;51.514;-0.178;2023-04-30T00:20:47;14.77;;;8.07;;
48524;SDS011;34316;51.514;-0.178;2023-04-30T00:22:48;12.32;;;8.15;;
48524;SDS011;34316;51.514;-0.178;2023-04-30T00:24:50;16.70;;;8.32;;
48524;SDS011;34316;51.514;-0.178;2023-04-30T00:26:52;15.85;;;8.60;;
48524;SDS011;34316;51.514;-0.178;2023-04-30T00:28:53;10.95;;;8.18;;
48524;SDS011;34316;51.514;-0.178;2023-04-30T00:30:55;16.13;;;8.23;;
48524;SDS011;34316;51.514;-0.178;2023-04-30T00:32:57;13.82;;;8.70;;
48524;SDS011;34316;51.514;-0.178;2023-04-30T00:34:58;12.93;;;8.10;;
48524;SDS011;34316;51.514;-0.178;2023-04-30T00:37:00;13.55;;;8.65;;
48524;SDS011;34316;51.514;-0.178;2023-04-30T00:39:02;15.80;;;8.07;;
48524;SDS011;34316;51.514;-0.178;2023-04-30T00:41:04;14.38;;;8.40;;
48524;SDS011;34316;51.514;-0.178;2023-04-30T00:43:06;14.15;;;7.93;;
48524;SDS011;34316;51.514;-0.178;2023-04-30T00:45:07;15.95;;;8.75;;
48524;SDS011;34316;51.514;-0.178;2023-04-30T00:47:09;14.77;;;8.13;;
48524;SDS011;34316;51.514;-0.178;2023-04-30T00:49:11;15.02;;;8.43;;
48524;SDS011;34316;51.514;-0.178;2023-04-30T00:51:12;11.63;;;8.07;;
48524;SDS011;34316;51.514;-0.178;2023-04-30T00:53:14;15.00;;;8.38;;
48524;SDS011;34316;51.514;-0.178;2023-04-30T00:55:17;14.43;;;8.30;;
48524;SDS011;34316;51.514;-0.178;2023-04-30T00:57:19;14.77;;;8.60;;
48524;SDS011;34316;51.514;-0.178;2023-04-30T00:59:20;10.70;;;7.40;;
48524;SDS011;34316;51.514;-0.178;2023-04-30T01:01:23;11.13;;;8.00;;
48524;SDS011;34316;51.514;-0.178;2023-04-30T01:03:27;11.57;;;7.45;;
48524;SDS011;34316;51.514;-0.178;2023-04-30T01:05:29;14.70;;;7.20;;
48524;SDS011;34316;51.514;-0.178;2023-04-30T01:07:31;11.68;;;8.23;;
48524;SDS011;34316;51.514;-0.178;2023-04-30T01:09:33;15.93;;;8.80;;
48524;SDS011;34316;51.514;-0.178;2023-04-30T01:11:43;12.52;;;9.05;;
48524;SDS011;34316;51.514;-0.178;2023-04-30T01:18:51;14.07;;;8.73;;
48524;SDS011;34316;51.514;-0.178;2023-04-30T01:21:12;13.45;;;9.18;;
48524;SDS011;34316;51.514;-0.178;2023-04-30T01:30:07;18.00;;;8.65;;
48524;SDS011;34316;51.514;-0.178;2023-04-30T01:32:09;15.23;;;8.60;;
48524;SDS011;34316;51.514;-0.178;2023-04-30T01:34:11;15.68;;;9.10;;
48524;SDS011;34316;51.514;-0.178;2023-04-30T01:36:31;12.75;;;8.68;;
48524;SDS011;34316;51.514;-0.178;2023-04-30T01:50:27;11.77;;;7.25;;
48524;SDS011;34316;51.514;-0.178;2023-04-30T01:52:47;14.57;;;7.20;;
48524;SDS011;34316;51.514;-0.178;2023-04-30T01:54:52;10.82;;;7.45;;
48524;SDS011;34316;51.514;-0.178;2023-04-30T01:57:04;11.40;;;7.53;;
48524;SDS011;34316;51.514;-0.178;2023-04-30T01:59:07;12.60;;;7.85;;
48524;SDS011;34316;51.514;-0.178;2023-04-30T02:01:24;11.25;;;8.20;;
48524;SDS011;34316;51.514;-0.178;2023-04-30T02:03:28;11.27;;;8.35;;
48524;SDS011;34316;51.514;-0.178;2023-04-30T02:05:30;13.40;;;7.65;;
48524;SDS011;34316;51.514;-0.178;2023-04-30T02:07:36;14.80;;;9.07;;
48524;SDS011;34316;51.514;-0.178;2023-04-30T02:09:39;13.75;;;8.25;;
48524;SDS011;34316;51.514;-0.178;2023-04-30T02:11:41;17.02;;;9.43;;
48524;SDS011;34316;51.514;-0.178;2023-04-30T02:13:43;14.10;;;9.35;;
48524;SDS011;34316;51.514;-0.178;2023-04-30T02:15:44;12.82;;;9.32;;
48524;SDS011;34316;51.514;-0.178;2023-04-30T02:17:46;15.55;;;8.88;;
48524;SDS011;34316;51.514;-0.178;2023-04-30T02:19:48;18.33;;;9.15;;
48524;SDS011;34316;51.514;-0.178;2023-04-30T02:21:49;13.70;;;9.10;;
48524;SDS011;34316;51.514;-0.178;2023-04-30T02:23:51;13.57;;;8.20;;
48524;SDS011;34316;51.514;-0.178;2023-04-30T02:25:53;13.77;;;8.65;;
48524;SDS011;34316;51.514;-0.178;2023-04-30T02:27:54;14.45;;;9.20;;
48524;SDS011;34316;51.514;-0.178;2023-04-30T02:29:56;15.02;;;9.45;;
48524;SDS011;34316;51.514;-0.178;2023-04-30T02:31:58;13.23;;;9.32;;
48524;SDS011;34316;51.514;-0.178;2023-04-30T02:34:01;14.13;;;9.55;;
48524;SDS011;34316;51.514;-0.178;2023-04-30T02:36:02;18.33;;;9.77;;
48524;SDS011;34316;51.514;-0.178;2023-04-30T02:38:04;16.25;;;9.50;;
48524;SDS011;34316;51.514;-0.178;2023-04-30T02:40:06;12.85;;;8.95;;
48524;SDS011;34316;51.514;-0.178;2023-04-30T02:42:08;11.57;;;8.70;;
48524;SDS011;34316;51.514;-0.178;2023-04-30T02:44:10;13.88;;;9.15;;
48524;SDS011;34316;51.514;-0.178;2023-04-30T02:46:12;14.20;;;9.20;;
48524;SDS011;34316;51.514;-0.178;2023-04-30T02:48:14;16.05;;;9.88;;
48524;SDS011;34316;51.514;-0.178;2023-04-30T02:50:16;15.13;;;9.80;;
48524;SDS011;34316;51.514;-0.178;2023-04-30T02:52:17;17.85;;;9.93;;
48524;SDS011;34316;51.514;-0.178;2023-04-30T02:54:19;14.60;;;9.90;;
48524;SDS011;34316;51.514;-0.178;2023-04-30T02:56:21;13.18;;;9.80;;
48524;SDS011;34316;51.514;-0.178;2023-04-30T02:58:22;16.63;;;10.00;;
48524;SDS011;34316;51.514;-0.178;2023-04-30T03:00:24;14.23;;;9.77;;
48524;SDS011;34316;51.514;-0.178;2023-04-30T03:02:26;17.52;;;10.13;;
48524;SDS011;34316;51.514;-0.178;2023-04-30T03:04:28;14.05;;;9.68;;
48524;SDS011;34316;51.514;-0.178;2023-04-30T03:06:30;14.05;;;9.73;;
48524;SDS011;34316;51.514;-0.178;2023-04-30T03:08:32;14.70;;;9.45;;
48524;SDS011;34316;51.514;-0.178;2023-04-30T03:10:34;18.45;;;9.82;;
48524;SDS011;34316;51.514;-0.178;2023-04-30T03:12:35;16.75;;;10.88;;
48524;SDS011;34316;51.514;-0.178;2023-04-30T03:14:37;16.25;;;10.00;;
48524;SDS011;34316;51.514;-0.178;2023-04-30T03:16:38;13.82;;;10.15;;
48524;SDS011;34316;51.514;-0.178;2023-04-30T03:18:41;17.92;;;11.02;;
48524;SDS011;34316;51.514;-0.178;2023-04-30T03:20:43;14.88;;;9.93;;
48524;SDS011;34316;51.514;-0.178;2023-04-30T03:22:45;18.33;;;10.07;;
48524;SDS011;34316;51.514;-0.178;2023-04-30T03:24:47;14.68;;;10.32;;
48524;SDS011;34316;51.514;-0.178;2023-04-30T03:26:48;15.55;;;10.70;;
48524;SDS011;34316;51.514;-0.178;2023-04-30T03:28:50;16.52;;;10.27;;
48524;SDS011;34316;51.514;-0.178;2023-04-30T03:30:51;17.23;;;9.75;;
48524;SDS011;34316;51.514;-0.178;2023-04-30T03:32:53;16.25;;;10.80;;
48524;SDS011;34316;51.514;-0.178;2023-04-30T03:34:54;16.02;;;10.75;;
48524;SDS011;34316;51.514;-0.178;2023-04-30T03:36:56;14.50;;;10.48;;
48524;SDS011;34316;51.514;-0.178;2023-04-30T03:38:58;18.17;;;11.23;;
48524;SDS011;34316;51.514;-0.178;2023-04-30T03:41:00;15.73;;;10.20;;
48524;SDS011;34316;51.514;-0.178;2023-04-30T03:43:02;15.50;;;9.80;;
48524;SDS011;34316;51.514;-0.178;2023-04-30T03:45:03;17.15;;;10.75;;
48524;SDS011;34316;51.514;-0.178;2023-04-30T03:47:05;16.38;;;10.05;;
48524;SDS011;34316;51.514;-0.178;2023-04-30T03:49:07;16.15;;;10.27;;
48524;SDS011;34316;51.514;-0.178;2023-04-30T03:51:09;16.33;;;10.40;;
48524;SDS011;34316;51.514;-0.178;2023-04-30T03:53:11;18.38;;;9.70;;
48524;SDS011;34316;51.514;-0.178;2023-04-30T03:55:12;15.75;;;9.63;;
48524;SDS011;34316;51.514;-0.178;2023-04-30T03:57:14;13.85;;;10.20;;
48524;SDS011;34316;51.514;-0.178;2023-04-30T03:59:16;15.10;;;10.20;;
48524;SDS011;34316;51.514;-0.178;2023-04-30T04:01:18;17.05;;;10.52;;
48524;SDS011;34316;51.514;-0.178;2023-04-30T04:03:19;15.00;;;10.50;;
48524;SDS011;34316;51.514;-0.178;2023-04-30T04:05:21;14.85;;;10.05;;
48524;SDS011;34316;51.514;-0.178;2023-04-30T04:07:22;19.85;;;11.27;;
48524;SDS011;34316;51.514;-0.178;2023-04-30T04:09:24;15.80;;;10.43;;
48524;SDS011;34316;51.514;-0.178;2023-04-30T04:11:26;18.80;;;11.63;;
48524;SDS011;34316;51.514;-0.178;2023-04-30T04:13:28;16.85;;;10.80;;
48524;SDS011;34316;51.514;-0.178;2023-04-30T04:15:29;20.02;;;10.95;;
48524;SDS011;34316;51.514;-0.178;2023-04-30T04:17:31;17.60;;;11.10;;
48524;SDS011;34316;51.514;-0.178;2023-04-30T04:19:33;16.73;;;10.93;;
48524;SDS011;34316;51.514;-0.178;2023-04-30T04:21:35;16.23;;;9.60;;
48524;SDS011;34316;51.514;-0.178;2023-04-30T04:23:37;17.60;;;10.63;;
48524;SDS011;34316;51.514;-0.178;2023-04-30T04:25:38;15.60;;;10.02;;
48524;SDS011;34316;51.514;-0.178;2023-04-30T04:27:41;17.75;;;10.23;;
48524;SDS011;34316;51.514;-0.178;2023-04-30T04:29:43;13.15;;;8.95;;
48524;SDS011;34316;51.514;-0.178;2023-04-30T04:31:44;15.27;;;9.77;;
48524;SDS011;34316;51.514;-0.178;2023-04-30T04:33:49;14.05;;;9.68;;
48524;SDS011;34316;51.514;-0.178;2023-04-30T04:35:58;15.38;;;9.82;;
48524;SDS011;34316;51.514;-0.178;2023-04-30T04:38:00;18.15;;;9.93;;
48524;SDS011;34316;51.514;-0.178;2023-04-30T04:40:01;16.05;;;9.85;;
48524;SDS011;34316;51.514;-0.178;2023-04-30T04:42:05;11.65;;;8.75;;
48524;SDS011;34316;51.514;-0.178;2023-04-30T04:44:06;15.43;;;10.57;;
48524;SDS011;34316;51.514;-0.178;2023-04-30T04:46:08;18.52;;;10.73;;
48524;SDS011;34316;51.514;-0.178;2023-04-30T04:48:14;21.30;;;10.88;;
48524;SDS011;34316;51.514;-0.178;2023-04-30T04:50:16;21.17;;;11.48;;
48524;SDS011;34316;51.514;-0.178;2023-04-30T04:52:18;18.55;;;11.30;;
48524;SDS011;34316;51.514;-0.178;2023-04-30T04:54:19;16.90;;;10.85;;
48524;SDS011;34316;51.514;-0.178;2023-04-30T04:56:21;18.38;;;11.63;;
48524;SDS011;34316;51.514;-0.178;2023-04-30T04:58:23;16.95;;;11.90;;
48524;SDS011;34316;51.514;-0.178;2023-04-30T05:00:24;18.55;;;10.70;;
48524;SDS011;34316;51.514;-0.178;2023-04-30T05:02:26;15.23;;;10.07;;
48524;SDS011;34316;51.514;-0.178;2023-04-30T05:04:28;14.55;;;10.68;;
48524;SDS011;34316;51.514;-0.178;2023-04-30T05:06:30;16.38;;;10.85;;
48524;SDS011;34316;51.514;-0.178;2023-04-30T05:08:32;20.02;;;10.90;;
48524;SDS011;34316;51.514;-0.178;2023-04-30T05:10:34;19.67;;;11.25;;
48524;SDS011;34316;51.514;-0.178;2023-04-30T05:12:35;17.83;;;11.90;;
48524;SDS011;34316;51.514;-0.178;2023-04-30T05:14:37;20.45;;;10.18;;
48524;SDS011;34316;51.514;-0.178;2023-04-30T05:16:38;14.45;;;10.95;;
48524;SDS011;34316;51.514;-0.178;2023-04-30T05:18:40;14.45;;;10.18;;
48524;SDS011;34316;51.514;-0.178;2023-04-30T05:20:42;14.50;;;9.95;;
48524;SDS011;34316;51.514;-0.178;2023-04-30T05:22:44;16.08;;;9.75;;
48524;SDS011;34316;51.514;-0.178;2023-04-30T05:24:45;14.32;;;9.75;;
48524;SDS011;34316;51.514;-0.178;2023-04-30T05:26:47;12.38;;;8.95;;
48524;SDS011;34316;51.514;-0.178;2023-04-30T05:28:49;16.75;;;9.10;;
48524;SDS011;34316;51.514;-0.178;2023-04-30T05:30:52;16.80;;;9.63;;
48524;SDS011;34316;51.514;-0.178;2023-04-30T05:32:54;15.60;;;9.65;;
48524;SDS011;34316;51.514;-0.178;2023-04-30T05:34:57;14.88;;;9.52;;
48524;SDS011;34316;51.514;-0.178;2023-04-30T05:36:58;11.60;;;8.55;;
48524;SDS011;34316;51.514;-0.178;2023-04-30T05:39:01;12.80;;;9.13;;
48524;SDS011;34316;51.514;-0.178;2023-04-30T05:41:03;13.65;;;8.52;;
48524;SDS011;34316;51.514;-0.178;2023-04-30T05:43:05;13.90;;;8.82;;
48524;SDS011;34316;51.514;-0.178;2023-04-30T05:45:07;15.57;;;8.75;;
48524;SDS011;34316;51.514;-0.178;2023-04-30T05:47:08;15.85;;;9.23;;
48524;SDS011;34316;51.514;-0.178;2023-04-30T05:49:10;17.65;;;8.70;;
48524;SDS011;34316;51.514;-0.178;2023-04-30T05:51:12;15.95;;;8.57;;
48524;SDS011;34316;51.514;-0.178;2023-04-30T05:53:14;13.77;;;8.43;;
48524;SDS011;34316;51.514;-0.178;2023-04-30T05:55:15;12.23;;;9.18;;
48524;SDS011;34316;51.514;-0.178;2023-04-30T05:57:17;18.02;;;8.82;;
48524;SDS011;34316;51.514;-0.178;2023-04-30T05:59:19;15.25;;;9.35;;
48524;SDS011;34316;51.514;-0.178;2023-04-30T06:01:20;20.15;;;12.35;;
48524;SDS011;34316;51.514;-0.178;2023-04-30T06:03:23;15.02;;;9.65;;
48524;SDS011;34316;51.514;-0.178;2023-04-30T06:05:25;14.15;;;9.57;;
48524;SDS011;34316;51.514;-0.178;2023-04-30T06:07:27;15.40;;;9.18;;
48524;SDS011;34316;51.514;-0.178;2023-04-30T06:09:28;15.02;;;9.10;;
48524;SDS011;34316;51.514;-0.178;2023-04-30T06:11:30;18.55;;;9.85;;
48524;SDS011;34316;51.514;-0.178;2023-04-30T06:13:32;15.27;;;9.45;;
48524;SDS011;34316;51.514;-0.178;2023-04-30T06:15:34;14.90;;;9.85;;
48524;SDS011;34316;51.514;-0.178;2023-04-30T06:17:35;16.25;;;10.38;;
48524;SDS011;34316;51.514;-0.178;2023-04-30T06:19:37;18.98;;;10.07;;
48524;SDS011;34316;51.514;-0.178;2023-04-30T06:21:39;16.13;;;9.68;;
48524;SDS011;34316;51.514;-0.178;2023-04-30T06:23:41;13.90;;;9.80;;
48524;SDS011;34316;51.514;-0.178;2023-04-30T06:25:42;20.02;;;13.38;;
48524;SDS011;34316;51.514;-0.178;2023-04-30T06:27:44;17.35;;;9.95;;
48524;SDS011;34316;51.514;-0.178;2023-04-30T06:29:46;18.50;;;10.18;;
48524;SDS011;34316;51.514;-0.178;2023-04-30T06:31:47;20.00;;;9.38;;
48524;SDS011;34316;51.514;-0.178;2023-04-30T06:33:49;14.02;;;9.38;;
48524;SDS011;34316;51.514;-0.178;2023-04-30T06:35:51;15.75;;;10.20;;
48524;SDS011;34316;51.514;-0.178;2023-04-30T06:37:55;18.23;;;10.43;;
48524;SDS011;34316;51.514;-0.178;2023-04-30T06:39:57;14.13;;;9.07;;
48524;SDS011;34316;51.514;-0.178;2023-04-30T06:41:58;18.15;;;10.18;;
48524;SDS011;34316;51.514;-0.178;2023-04-30T06:44:00;14.55;;;9.48;;
48524;SDS011;34316;51.514;-0.178;2023-04-30T06:46:02;18.80;;;10.25;;
48524;SDS011;34316;51.514;-0.178;2023-04-30T06:48:04;16.30;;;9.73;;
48524;SDS011;34316;51.514;-0.178;2023-04-30T06:50:06;18.08;;;9.50;;
48524;SDS011;34316;51.514;-0.178;2023-04-30T06:52:07;22.05;;;14.93;;
48524;SDS011;34316;51.514;-0.178;2023-04-30T06:54:09;39.75;;;26.08;;
48524;SDS011;34316;51.514;-0.178;2023-04-30T06:56:11;18.10;;;10.68;;
48524;SDS011;34316;51.514;-0.178;2023-04-30T06:58:13;16.90;;;11.30;;
48524;SDS011;34316;51.514;-0.178;2023-04-30T07:00:15;14.88;;;10.05;;
48524;SDS011;34316;51.514;-0.178;2023-04-30T07:02:17;17.15;;;10.40;;
48524;SDS011;34316;51.514;-0.178;2023-04-30T07:04:22;20.10;;;10.63;;
48524;SDS011;34316;51.514;-0.178;2023-04-30T07:06:25;19.25;;;11.15;;
48524;SDS011;34316;51.514;-0.178;2023-04-30T07:08:27;17.90;;;11.50;;
48524;SDS011;34316;51.514;-0.178;2023-04-30T07:10:28;19.58;;;10.98;;
48524;SDS011;34316;51.514;-0.178;2023-04-30T07:12:31;18.20;;;12.63;;
48524;SDS011;34316;51.514;-0.178;2023-04-30T07:14:33;17.52;;;12.10;;
48524;SDS011;34316;51.514;-0.178;2023-04-30T07:16:34;25.63;;;13.32;;
48524;SDS011;34316;51.514;-0.178;2023-04-30T07:18:36;21.15;;;13.65;;
48524;SDS011;34316;51.514;-0.178;2023-04-30T07:20:38;22.20;;;13.23;;
48524;SDS011;34316;51.514;-0.178;2023-04-30T07:22:42;21.35;;;12.05;;
48524;SDS011;34316;51.514;-0.178;2023-04-30T07:24:46;21.77;;;12.23;;
48524;SDS011;34316;51.514;-0.178;2023-04-30T07:26:48;18.30;;;11.88;;
48524;SDS011;34316;51.514;-0.178;2023-04-30T07:28:49;18.20;;;11.20;;
48524;SDS011;34316;51.514;-0.178;2023-04-30T07:30:51;21.05;;;10.93;;
48524;SDS011;34316;51.514;-0.178;2023-04-30T07:32:53;27.23;;;12.75;;
48524;SDS011;34316;51.514;-0.178;2023-04-30T07:34:55;21.92;;;12.77;;
48524;SDS011;34316;51.514;-0.178;2023-04-30T07:36:56;18.77;;;11.98;;
48524;SDS011;34316;51.514;-0.178;2023-04-30T07:38:58;32.83;;;14.07;;
48524;SDS011;34316;51.514;-0.178;2023-04-30T07:41:00;36.47;;;16.35;;
48524;SDS011;34316;51.514;-0.178;2023-04-30T07:43:02;29.02;;;13.68;;
48524;SDS011;34316;51.514;-0.178;2023-04-30T07:45:05;18.10;;;12.18;;
48524;SDS011;34316;51.514;-0.178;2023-04-30T07:47:07;24.55;;;11.77;;
48524;SDS011;34316;51.514;-0.178;2023-04-30T07:49:10;18.55;;;9.40;;
48524;SDS011;34316;51.514;-0.178;2023-04-30T07:51:11;19.83;;;10.40;;
48524;SDS011;34316;51.514;-0.178;2023-04-30T07:53:13;11.75;;;7.28;;
48524;SDS011;34316;51.514;-0.178;2023-04-30T07:55:15;17.33;;;8.07;;
48524;SDS011;34316;51.514;-0.178;2023-04-30T07:57:16;12.75;;;7.32;;
48524;SDS011;34316;51.514;-0.178;2023-04-30T07:59:18;13.10;;;7.00;;
48524;SDS011;34316;51.514;-0.178;2023-04-30T08:01:21;12.52;;;6.85;;
48524;SDS011;34316;51.514;-0.178;2023-04-30T08:03:23;9.98;;;6.55;;
48524;SDS011;34316;51.514;-0.178;2023-04-30T08:05:25;13.50;;;5.85;;
48524;SDS011;34316;51.514;-0.178;2023-04-30T08:07:27;13.63;;;5.50;;
48524;SDS011;34316;51.514;-0.178;2023-04-30T08:09:29;9.52;;;5.10;;
48524;SDS011;34316;51.514;-0.178;2023-04-30T08:11:31;8.15;;;4.90;;
48524;SDS011;34316;51.514;-0.178;2023-04-30T08:13:33;11.18;;;5.13;;
48524;SDS011;34316;51.514;-0.178;2023-04-30T08:15:35;11.45;;;5.18;;
48524;SDS011;34316;51.514;-0.178;2023-04-30T08:17:37;10.75;;;5.35;;
48524;SDS011;34316;51.514;-0.178;2023-04-30T08:19:39;7.35;;;4.65;;
48524;SDS011;34316;51.514;-0.178;2023-04-30T08:21:41;9.55;;;4.90;;
48524;SDS011;34316;51.514;-0.178;2023-04-30T08:23:42;9.07;;;5.10;;
48524;SDS011;34316;51.514;-0.178;2023-04-30T08:25:44;7.93;;;4.35;;
48524;SDS011;34316;51.514;-0.178;2023-04-30T08:27:46;6.95;;;4.72;;
48524;SDS011;34316;51.514;-0.178;2023-04-30T08:29:47;8.75;;;4.88;;
48524;SDS011;34316;51.514;-0.178;2023-04-30T08:31:49;8.43;;;4.93;;
48524;SDS011;34316;51.514;-0.178;2023-04-30T08:33:51;9.82;;;4.50;;
48524;SDS011;34316;51.514;-0.178;2023-04-30T08:35:53;7.63;;;4.07;;
48524;SDS011;34316;51.514;-0.178;2023-04-30T08:37:54;10.25;;;5.68;;
48524;SDS011;34316;51.514;-0.178;2023-04-30T08:39:56;8.63;;;4.38;;
48524;SDS011;34316;51.514;-0.178;2023-04-30T08:41:59;9.32;;;4.03;;
48524;SDS011;34316;51.514;-0.178;2023-04-30T08:44:03;6.80;;;3.95;;
48524;SDS011;34316;51.514;-0.178;2023-04-30T08:46:08;7.63;;;3.70;;
48524;SDS011;34316;51.514;-0.178;2023-04-30T08:48:13;8.38;;;4.07;;
48524;SDS011;34316;51.514;-0.178;2023-04-30T08:50:16;8.75;;;4.10;;
48524;SDS011;34316;51.514;-0.178;2023-04-30T08:52:18;5.70;;;3.60;;
48524;SDS011;34316;51.514;-0.178;2023-04-30T08:54:20;11.55;;;3.95;;
48524;SDS011;34316;51.514;-0.178;2023-04-30T08:56:23;7.90;;;3.42;;
48524;SDS011;34316;51.514;-0.178;2023-04-30T08:58:25;10.30;;;4.40;;
48524;SDS011;34316;51.514;-0.178;2023-04-30T09:00:27;8.93;;;4.38;;
48524;SDS011;34316;51.514;-0.178;2023-04-30T09:02:30;8.02;;;4.25;;
48524;SDS011;34316;51.514;-0.178;2023-04-30T09:04:33;7.15;;;4.00;;
48524;SDS011;34316;51.514;-0.178;2023-04-30T09:06:34;6.13;;;3.75;;
48524;SDS011;34316;51.514;-0.178;2023-04-30T09:08:48;5.40;;;3.63;;
48524;SDS011;34316;51.514;-0.178;2023-04-30T09:10:50;4.47;;;2.80;;
48524;SDS011;34316;51.514;-0.178;2023-04-30T09:13:05;5.22;;;3.45;;
48524;SDS011;34316;51.514;-0.178;2023-04-30T09:15:07;4.95;;;3.40;;
48524;SDS011;34316;51.514;-0.178;2023-04-30T09:17:09;6.15;;;3.80;;
48524;SDS011;34316;51.514;-0.178;2023-04-30T09:19:22;6.20;;;3.55;;
48524;SDS011;34316;51.514;-0.178;2023-04-30T09:21:32;5.90;;;3.38;;
48524;SDS011;34316;51.514;-0.178;2023-04-30T09:23:35;6.88;;;3.80;;
48524;SDS011;34316;51.514;-0.178;2023-04-30T09:25:40;4.65;;;3.78;;
48524;SDS011;34316;51.514;-0.178;2023-04-30T09:27:42;5.95;;;3.75;;
48524;SDS011;34316;51.514;-0.178;2023-04-30T09:29:45;6.05;;;3.47;;
48524;SDS011;34316;51.514;-0.178;2023-04-30T09:31:47;4.57;;;3.50;;
48524;SDS011;34316;51.514;-0.178;2023-04-30T09:33:49;3.80;;;3.00;;
48524;SDS011;34316;51.514;-0.178;2023-04-30T09:35:51;4.25;;;3.03;;
48524;SDS011;34316;51.514;-0.178;2023-04-30T09:37:52;5.55;;;3.92;;
48524;SDS011;34316;51.514;-0.178;2023-04-30T09:39:54;4.25;;;3.65;;
48524;SDS011;34316;51.514;-0.178;2023-04-30T09:42:06;5.05;;;3.70;;
48524;SDS011;34316;51.514;-0.178;2023-04-30T09:44:27;6.18;;;4.65;;
48524;SDS011;34316;51.514;-0.178;2023-04-30T09:46:29;6.15;;;3.92;;
48524;SDS011;34316;51.514;-0.178;2023-04-30T09:48:32;5.97;;;3.80;;
48524;SDS011;34316;51.514;-0.178;2023-04-30T09:50:37;5.00;;;3.10;;
48524;SDS011;34316;51.514;-0.178;2023-04-30T09:52:52;5.55;;;3.22;;
48524;SDS011;34316;51.514;-0.178;2023-04-30T09:54:54;3.47;;;3.08;;
48524;SDS011;34316;51.514;-0.178;2023-04-30T09:56:56;6.18;;;3.47;;
48524;SDS011;34316;51.514;-0.178;2023-04-30T10:01:00;5.22;;;3.28;;
48524;SDS011;34316;51.514;-0.178;2023-04-30T10:03:07;4.28;;;3.53;;
48524;SDS011;34316;51.514;-0.178;2023-04-30T10:05:13;6.47;;;3.08;;
48524;SDS011;34316;51.514;-0.178;2023-04-30T10:07:15;4.80;;;2.95;;
48524;SDS011;34316;51.514;-0.178;2023-04-30T10:09:23;5.13;;;3.47;;
48524;SDS011;34316;51.514;-0.178;2023-04-30T10:11:31;6.25;;;3.40;;
48524;SDS011;34316;51.514;-0.178;2023-04-30T10:13:39;5.93;;;3.65;;
48524;SDS011;34316;51.514;-0.178;2023-04-30T10:15:47;6.47;;;4.45;;
48524;SDS011;34316;51.514;-0.178;2023-04-30T10:17:53;5.65;;;3.20;;
48524;SDS011;34316;51.514;-0.178;2023-04-30T10:20:00;5.65;;;3.33;;
48524;SDS011;34316;51.514;-0.178;2023-04-30T10:22:06;9.50;;;4.35;;
48524;SDS011;34316;51.514;-0.178;2023-04-30T10:24:08;9.80;;;4.82;;
48524;SDS011;34316;51.514;-0.178;2023-04-30T10:26:10;11.73;;;5.05;;
48524;SDS011;34316;51.514;-0.178;2023-04-30T10:28:13;10.57;;;4.32;;
48524;SDS011;34316;51.514;-0.178;2023-04-30T10:30:14;13.50;;;4.55;;
48524;SDS011;34316;51.514;-0.178;2023-04-30T10:32:16;15.38;;;5.07;;
48524;SDS011;34316;51.514;-0.178;2023-04-30T10:34:24;8.10;;;4.45;;
48524;SDS011;34316;51.514;-0.178;2023-04-30T10:36:41;11.35;;;5.05;;
48524;SDS011;34316;51.514;-0.178;2023-04-30T10:38:45;6.32;;;5.00;;
48524;SDS011;34316;51.514;-0.178;2023-04-30T10:40:48;8.50;;;4.75;;
48524;SDS011;34316;51.514;-0.178;2023-04-30T10:42:52;7.32;;;5.50;;
48524;SDS011;34316;51.514;-0.178;2023-04-30T10:44:54;9.05;;;5.90;;
48524;SDS011;34316;51.514;-0.178;2023-04-30T10:46:57;6.47;;;4.88;;
48524;SDS011;34316;51.514;-0.178;2023-04-30T10:49:02;7.85;;;5.97;;
48524;SDS011;34316;51.514;-0.178;2023-04-30T10:51:04;8.88;;;5.82;;
48524;SDS011;34316;51.514;-0.178;2023-04-30T10:53:06;7.45;;;5.57;;
48524;SDS011;34316;51.514;-0.178;2023-04-30T10:55:08;11.90;;;8.23;;
48524;SDS011;34316;51.514;-0.178;2023-04-30T10:57:11;12.88;;;7.22;;
48524;SDS011;34316;51.514;-0.178;2023-04-30T10:59:18;9.20;;;5.85;;
48524;SDS011;34316;51.514;-0.178;2023-04-30T11:01:20;6.35;;;5.10;;
48524;SDS011;34316;51.514;-0.178;2023-04-30T11:03:22;7.03;;;5.80;;
48524;SDS011;34316;51.514;-0.178;2023-04-30T11:05:36;9.20;;;4.68;;
48524;SDS011;34316;51.514;-0.178;2023-04-30T11:07:48;6.22;;;4.20;;
48524;SDS011;34316;51.514;-0.178;2023-04-30T11:09:50;6.55;;;4.78;;
48524;SDS011;34316;51.514;-0.178;2023-04-30T11:12:01;5.90;;;3.70;;
48524;SDS011;34316;51.514;-0.178;2023-04-30T11:14:04;4.18;;;3.60;;
48524;SDS011;34316;51.514;-0.178;2023-04-30T11:16:05;5.97;;;4.05;;
48524;SDS011;34316;51.514;-0.178;2023-04-30T11:18:07;5.25;;;3.97;;
48524;SDS011;34316;51.514;-0.178;2023-04-30T11:20:13;6.88;;;4.00;;
48524;SDS011;34316;51.514;-0.178;2023-04-30T11:22:22;5.47;;;3.95;;
48524;SDS011;34316;51.514;-0.178;2023-04-30T11:24:48;7.03;;;3.22;;
48524;SDS011;34316;51.514;-0.178;2023-04-30T11:27:02;4.05;;;3.10;;
48524;SDS011;34316;51.514;-0.178;2023-04-30T11:29:05;5.57;;;3.20;;
48524;SDS011;34316;51.514;-0.178;2023-04-30T11:31:07;8.52;;;5.10;;
48524;SDS011;34316;51.514;-0.178;2023-04-30T11:33:09;8.02;;;3.28;;
48524;SDS011;34316;51.514;-0.178;2023-04-30T11:35:12;4.40;;;3.00;;
48524;SDS011;34316;51.514;-0.178;2023-04-30T11:37:19;6.63;;;4.82;;
48524;SDS011;34316;51.514;-0.178;2023-04-30T11:39:22;4.85;;;3.17;;
48524;SDS011;34316;51.514;-0.178;2023-04-30T11:41:24;5.40;;;3.93;;
48524;SDS011;34316;51.514;-0.178;2023-04-30T11:43:28;5.00;;;3.30;;
48524;SDS011;34316;51.514;-0.178;2023-04-30T11:45:33;6.82;;;3.75;;
48524;SDS011;34316;51.514;-0.178;2023-04-30T11:49:43;4.85;;;3.30;;
48524;SDS011;34316;51.514;-0.178;2023-04-30T11:51:47;3.95;;;3.33;;
48524;SDS011;34316;51.514;-0.178;2023-04-30T11:53:51;5.15;;;3.05;;
48524;SDS011;34316;51.514;-0.178;2023-04-30T11:57:56;3.85;;;3.05;;
48524;SDS011;34316;51.514;-0.178;2023-04-30T12:00:06;6.20;;;2.90;;
48524;SDS011;34316;51.514;-0.178;2023-04-30T12:02:13;5.45;;;3.15;;
48524;SDS011;34316;51.514;-0.178;2023-04-30T12:04:16;4.38;;;3.25;;
48524;SDS011;34316;51.514;-0.178;2023-04-30T12:06:23;5.32;;;3.35;;
48524;SDS011;34316;51.514;-0.178;2023-04-30T12:08:25;3.90;;;3.20;;
48524;SDS011;34316;51.514;-0.178;2023-04-30T12:10:27;8.65;;;3.22;;
48524;SDS011;34316;51.514;-0.178;2023-04-30T12:12:29;7.95;;;3.50;;
48524;SDS011;34316;51.514;-0.178;2023-04-30T12:14:31;6.70;;;3.60;;
48524;SDS011;34316;51.514;-0.178;2023-04-30T12:16:45;4.15;;;3.45;;
48524;SDS011;34316;51.514;-0.178;2023-04-30T12:18:49;4.88;;;3.80;;
48524;SDS011;34316;51.514;-0.178;2023-04-30T12:20:53;6.63;;;3.50;;
48524;SDS011;34316;51.514;-0.178;2023-04-30T12:22:55;8.63;;;3.40;;
48524;SDS011;34316;51.514;-0.178;2023-04-30T12:24:58;10.37;;;4.00;;
48524;SDS011;34316;51.514;-0.178;2023-04-30T12:27:00;4.40;;;2.78;;
48524;SDS011;34316;51.514;-0.178;2023-04-30T12:29:03;4.13;;;2.72;;
48524;SDS011;34316;51.514;-0.178;2023-04-30T12:31:05;5.35;;;3.05;;